Time;durP1;ratioP1;P1;durP2;ratioP2;P2;SDS_P1;SDS_P2;PMS_P1;PMS_P2;Temp;Humidity;BMP_temperature;BMP_pressure;BME280_temperature;BME280_humidity;BME280_pressure;Samples;Min_cycle;Max_cycle;Signal;HPM_P1;HPM_P2
2022/12/15 00:39:39;;;;;;;30.65;20.85;;;21.90;35.10;;;;;;6138886;28;83628;-65
2022/12/15 00:42:39;;;;;;;35.33;22.20;;;21.90;35.10;;;;;;6134131;28;83440;-63
2022/12/15 00:48:59;;;;;;;34.08;22.10;;;21.90;35.20;;;;;;6142419;28;83100;-62
2022/12/15 01:21:54;;;;;;;38.10;24.42;;;21.70;35.40;;;;;;6149462;28;83323;-62
2022/12/15 01:24:54;;;;;;;37.70;24.33;;;21.70;35.50;;;;;;6149840;28;84605;-62
2022/12/15 01:27:55;;;;;;;39.35;25.63;;;21.70;35.60;;;;;;6149633;28;84027;-62
2022/12/15 01:30:55;;;;;;;36.35;23.77;;;21.70;35.50;;;;;;6148368;28;83518;-62
2022/12/15 01:33:56;;;;;;;40.03;24.60;;;21.70;35.60;;;;;;6147915;28;83983;-61
2022/12/15 01:36:56;;;;;;;38.67;24.38;;;21.70;35.60;;;;;;6150227;28;83118;-63
2022/12/15 01:43:16;;;;;;;42.47;26.83;;;21.70;35.50;;;;;;6138291;28;83580;-62
2022/12/15 01:46:17;;;;;;;38.20;25.25;;;21.70;35.40;;;;;;6149360;28;84461;-62
2022/12/15 01:49:17;;;;;;;37.70;24.27;;;21.70;35.50;;;;;;6150290;28;83211;-62
2022/12/15 01:52:18;;;;;;;43.50;26.63;;;21.70;35.50;;;;;;6135767;28;83269;-62
2022/12/15 01:55:18;;;;;;;39.15;26.00;;;21.70;35.40;;;;;;6147889;28;83788;-61
2022/12/15 01:58:19;;;;;;;40.80;24.88;;;21.70;35.50;;;;;;6132148;28;82972;-63
2022/12/15 02:01:19;;;;;;;38.53;25.20;;;21.70;35.40;;;;;;6122905;28;83677;-62
2022/12/15 02:04:20;;;;;;;41.42;26.40;;;21.70;35.40;;;;;;6124684;28;84422;-62
2022/12/15 02:07:20;;;;;;;40.80;24.95;;;21.70;35.50;;;;;;6125673;28;83344;-62
2022/12/15 02:10:21;;;;;;;40.83;26.25;;;21.70;35.40;;;;;;6130774;28;85467;-61
2022/12/15 02:13:21;;;;;;;39.30;26.02;;;21.70;35.50;;;;;;6130172;28;83519;-62
2022/12/15 02:16:22;;;;;;;41.60;27.27;;;21.60;35.60;;;;;;6125994;28;83847;-63
2022/12/15 02:19:22;;;;;;;40.08;26.58;;;21.60;35.40;;;;;;6125028;28;83226;-63
2022/12/15 02:22:23;;;;;;;42.58;26.73;;;21.60;35.50;;;;;;6130457;28;83807;-63
2022/12/15 02:25:23;;;;;;;39.53;26.05;;;21.60;35.50;;;;;;6148347;28;83741;-63
2022/12/15 02:28:24;;;;;;;40.17;26.83;;;21.60;35.50;;;;;;6149584;28;83167;-64
2022/12/15 02:34:43;;;;;;;41.28;26.50;;;21.60;35.60;;;;;;6144481;28;83516;-62
2022/12/15 02:37:44;;;;;;;40.83;25.67;;;21.60;35.40;;;;;;6144923;28;83521;-64
2022/12/15 02:40:44;;;;;;;44.65;27.50;;;21.60;35.40;;;;;;6141967;28;83648;-64
2022/12/15 02:43:45;;;;;;;42.58;27.38;;;21.60;35.40;;;;;;6141754;28;84087;-63
2022/12/15 02:46:45;;;;;;;40.90;25.55;;;21.60;35.40;;;;;;6146095;28;84765;-65
2022/12/15 02:49:46;;;;;;;42.72;26.42;;;21.60;35.50;;;;;;6144104;28;83556;-63
2022/12/15 02:52:46;;;;;;;40.03;25.65;;;21.60;35.40;;;;;;6142042;28;83414;-63
2022/12/15 02:55:47;;;;;;;43.72;26.13;;;21.60;35.50;;;;;;6146234;28;83027;-64
2022/12/15 02:58:48;;;;;;;42.17;26.45;;;21.60;35.40;;;;;;6111398;28;83121;-63
2022/12/15 03:01:48;;;;;;;41.35;26.58;;;21.60;35.40;;;;;;6124879;28;83143;-64
2022/12/15 03:04:49;;;;;;;38.85;25.10;;;21.60;35.40;;;;;;6138022;28;84491;-61
2022/12/15 03:07:49;;;;;;;43.58;25.55;;;21.60;35.40;;;;;;6137896;28;83437;-63
2022/12/15 03:10:50;;;;;;;38.80;24.98;;;21.60;35.40;;;;;;6130454;28;83207;-63
2022/12/15 03:13:50;;;;;;;39.35;24.77;;;21.60;35.40;;;;;;6127094;28;83727;-63
2022/12/15 03:16:51;;;;;;;43.38;25.60;;;21.60;35.40;;;;;;6125010;28;84711;-63
2022/12/15 03:19:51;;;;;;;39.42;25.38;;;21.60;35.40;;;;;;6132198;28;83407;-64
2022/12/15 03:22:52;;;;;;;39.97;24.13;;;21.60;35.40;;;;;;6148062;28;84062;-62
2022/12/15 03:25:54;;;;;;;40.55;25.55;;;21.60;35.50;;;;;;6141527;28;87171;-63
2022/12/15 03:28:55;;;;;;;37.22;24.88;;;21.60;35.40;;;;;;6146753;28;84141;-62
2022/12/15 03:31:55;;;;;;;38.65;25.20;;;21.50;35.40;;;;;;6147969;28;83983;-62
2022/12/15 03:34:56;;;;;;;37.70;24.95;;;21.60;35.40;;;;;;6146672;28;83774;-62
2022/12/15 03:37:56;;;;;;;38.38;25.25;;;21.60;35.40;;;;;;6151421;28;83276;-62
2022/12/15 03:40:57;;;;;;;36.30;23.80;;;21.50;35.40;;;;;;6128683;28;84383;-62
2022/12/15 03:43:57;;;;;;;36.78;24.27;;;21.60;35.40;;;;;;6149729;28;83243;-62
2022/12/15 03:46:58;;;;;;;35.75;23.58;;;21.50;35.40;;;;;;6151144;28;83544;-62
2022/12/15 03:49:58;;;;;;;36.65;22.42;;;21.60;35.30;;;;;;6152775;28;84285;-61
2022/12/15 03:52:59;;;;;;;38.30;22.95;;;21.60;35.40;;;;;;6148732;28;92478;-62
2022/12/15 03:55:59;;;;;;;34.03;21.95;;;21.50;35.40;;;;;;6152008;28;83863;-63
2022/12/15 03:59:00;;;;;;;30.48;19.80;;;21.60;35.40;;;;;;6130212;28;83791;-60
2022/12/15 04:02:00;;;;;;;32.05;19.98;;;21.60;35.50;;;;;;6128896;28;84410;-63
2022/12/15 04:05:01;;;;;;;28.42;18.23;;;21.60;35.80;;;;;;6131136;28;83518;-61
2022/12/15 04:08:01;;;;;;;26.15;16.38;;;21.60;36.00;;;;;;6140591;28;83115;-62
2022/12/15 04:11:02;;;;;;;26.70;15.75;;;21.60;36.80;;;;;;6146324;28;83070;-63
2022/12/15 04:14:02;;;;;;;21.75;15.10;;;21.60;36.40;;;;;;6151074;28;83125;-64
2022/12/15 04:17:04;;;;;;;25.27;15.50;;;21.70;36.70;;;;;;6150890;28;90310;-63
2022/12/15 04:20:08;;;;;;;24.55;15.10;;;21.70;36.30;;;;;;6144468;28;82998;-65
2022/12/15 04:23:08;;;;;;;18.25;12.93;;;21.70;35.70;;;;;;6129243;28;84837;-62
2022/12/15 05:32:35;;;;;;;10.82;6.10;;;22.20;42.70;;;;;;6149418;28;80924;-59
2022/12/15 05:35:36;;;;;;;11.43;6.22;;;22.20;42.70;;;;;;6150466;28;80912;-61
2022/12/15 05:38:36;;;;;;;10.00;6.95;;;22.20;42.80;;;;;;6151443;28;80465;-61
2022/12/15 05:41:37;;;;;;;10.98;7.00;;;22.20;42.90;;;;;;6148938;28;81240;-60
2022/12/15 05:44:37;;;;;;;9.60;6.35;;;22.20;43.20;;;;;;6149526;28;81436;-65
2022/12/15 05:47:38;;;;;;;12.80;7.93;;;22.20;43.60;;;;;;6150526;28;87488;-60
2022/12/15 05:50:38;;;;;;;12.60;8.32;;;22.30;43.60;;;;;;6144457;28;82122;-60
2022/12/15 05:53:40;;;;;;;16.85;9.50;;;22.30;42.50;;;;;;6146414;28;81711;-60
2022/12/15 05:56:40;;;;;;;18.33;11.60;;;22.40;41.30;;;;;;6138120;28;82179;-62
2022/12/15 05:59:41;;;;;;;19.30;12.23;;;22.40;40.40;;;;;;6146386;28;85161;-62
2022/12/15 06:02:41;;;;;;;19.85;12.90;;;22.40;39.80;;;;;;6144676;28;83722;-63
2022/12/15 06:05:42;;;;;;;20.60;13.23;;;22.40;39.30;;;;;;6146426;28;83297;-62
2022/12/15 06:08:42;;;;;;;24.40;14.20;;;22.40;38.80;;;;;;6145851;28;84585;-62
2022/12/15 06:11:43;;;;;;;25.77;16.38;;;22.40;38.30;;;;;;6142573;28;83734;-62
2022/12/15 06:14:44;;;;;;;24.70;15.80;;;22.50;38.00;;;;;;6149017;28;83395;-62
2022/12/15 06:17:44;;;;;;;23.80;15.45;;;22.50;37.80;;;;;;6148562;28;82948;-60
2022/12/15 06:20:45;;;;;;;24.65;16.20;;;22.50;37.60;;;;;;6149310;28;84062;-62
2022/12/15 06:23:45;;;;;;;29.75;17.58;;;22.40;37.40;;;;;;6149048;28;83439;-61
2022/12/15 06:26:46;;;;;;;30.65;17.92;;;22.40;37.30;;;;;;6148093;28;83265;-62
2022/12/15 06:29:46;;;;;;;28.77;18.00;;;22.40;37.00;;;;;;6143235;28;84046;-61
2022/12/15 06:32:47;;;;;;;28.05;18.17;;;22.40;37.00;;;;;;6141110;28;83938;-61
2022/12/15 06:35:47;;;;;;;29.90;18.45;;;22.40;36.80;;;;;;6149101;28;83315;-60
2022/12/15 06:38:48;;;;;;;29.52;18.95;;;22.30;36.50;;;;;;6148031;28;83707;-62
2022/12/15 06:41:48;;;;;;;30.45;19.75;;;22.30;36.50;;;;;;6149268;28;84095;-62
2022/12/15 06:44:49;;;;;;;27.65;18.13;;;22.30;36.50;;;;;;6148940;28;83202;-61
2022/12/15 06:47:49;;;;;;;30.77;19.80;;;22.30;36.30;;;;;;6148158;28;83157;-62
2022/12/15 06:50:50;;;;;;;28.92;19.38;;;22.30;36.30;;;;;;6145616;28;83854;-60
2022/12/15 06:53:54;;;;;;;30.77;18.95;;;22.20;36.30;;;;;;6119832;28;84138;-60
2022/12/15 06:56:55;;;;;;;31.95;20.50;;;22.20;36.20;;;;;;6136222;28;83292;-60
2022/12/15 06:59:55;;;;;;;30.95;19.30;;;22.20;36.30;;;;;;6138759;28;84320;-60
2022/12/15 07:02:55;;;;;;;32.05;19.88;;;22.20;36.20;;;;;;6148642;28;83116;-60
2022/12/15 07:05:56;;;;;;;29.00;19.30;;;22.20;36.10;;;;;;6146342;28;83965;-61
2022/12/15 07:08:57;;;;;;;32.45;20.27;;;22.20;36.20;;;;;;6152422;28;83175;-60
2022/12/15 07:11:57;;;;;;;28.98;19.35;;;22.10;36.20;;;;;;6145251;28;83460;-60
2022/12/15 07:14:58;;;;;;;33.92;19.73;;;22.10;36.20;;;;;;6152634;28;84021;-60
2022/12/15 07:17:58;;;;;;;32.30;19.65;;;22.10;36.10;;;;;;6146136;28;84487;-61
2022/12/15 07:20:59;;;;;;;32.42;20.65;;;22.00;36.10;;;;;;6151046;28;83233;-60
2022/12/15 07:23:59;;;;;;;30.25;19.15;;;22.00;36.00;;;;;;6140764;28;83160;-61
2022/12/15 07:27:00;;;;;;;28.40;19.70;;;22.00;36.00;;;;;;6152043;28;83157;-63
2022/12/15 07:30:00;;;;;;;28.90;19.17;;;22.00;36.00;;;;;;6151228;28;82962;-62
2022/12/15 07:33:01;;;;;;;29.52;18.88;;;21.90;35.90;;;;;;6151140;28;85938;-63
2022/12/15 07:36:01;;;;;;;30.20;19.42;;;21.90;35.80;;;;;;6151708;28;83061;-62
2022/12/15 07:39:03;;;;;;;29.77;19.05;;;21.90;35.90;;;;;;6151379;28;83221;-62
2022/12/15 07:42:03;;;;;;;31.38;20.45;;;21.90;35.70;;;;;;6152283;28;83076;-62
2022/12/15 07:45:04;;;;;;;31.85;19.98;;;21.90;35.80;;;;;;6152956;28;85344;-61
2022/12/15 07:48:04;;;;;;;33.10;20.20;;;21.90;35.70;;;;;;6147065;28;83316;-65
2022/12/15 07:51:05;;;;;;;34.10;20.98;;;21.90;35.70;;;;;;6143465;28;83264;-65
2022/12/15 07:54:05;;;;;;;34.40;21.05;;;21.90;35.70;;;;;;6136288;28;83070;-61
2022/12/15 07:57:06;;;;;;;32.05;19.90;;;21.80;35.80;;;;;;6143511;28;83509;-60
2022/12/15 08:00:09;;;;;;;29.13;17.98;;;21.80;35.80;;;;;;6142019;28;83668;-59
2022/12/15 08:03:11;;;;;;;24.80;15.30;;;21.80;37.80;;;;;;6141133;28;84228;-65
2022/12/15 08:06:12;;;;;;;24.70;15.15;;;21.70;39.10;;;;;;6151889;28;83623;-63
2022/12/15 08:09:12;;;;;;;21.67;13.70;;;21.70;40.50;;;;;;6150186;28;84238;-61
2022/12/15 08:12:13;;;;;;;24.63;13.48;;;21.70;42.60;;;;;;6144932;28;89687;-64
2022/12/15 08:15:14;;;;;;;20.70;12.35;;;21.70;43.00;;;;;;6149348;28;83337;-66
2022/12/15 08:18:14;;;;;;;22.00;12.63;;;21.70;43.90;;;;;;6150155;28;83575;-65
2022/12/15 08:21:15;;;;;;;17.58;11.13;;;21.70;44.20;;;;;;6150364;28;84854;-66
2022/12/15 08:24:16;;;;;;;17.90;11.00;;;21.70;44.10;;;;;;6150706;28;83576;-63
2022/12/15 08:27:16;;;;;;;15.75;10.45;;;21.70;44.90;;;;;;6149245;28;82990;-64
2022/12/15 08:30:17;;;;;;;16.40;10.55;;;21.70;45.10;;;;;;6151059;28;83266;-63
2022/12/15 08:33:17;;;;;;;19.92;10.23;;;21.80;45.10;;;;;;6150875;28;83516;-63
2022/12/15 08:36:18;;;;;;;15.38;9.95;;;21.80;45.20;;;;;;6141099;28;84301;-64
2022/12/15 08:39:19;;;;;;;19.50;10.35;;;21.80;45.50;;;;;;6152629;28;88553;-63
2022/12/15 08:42:19;;;;;;;18.95;10.77;;;21.90;45.50;;;;;;6140810;28;82869;-64
2022/12/15 08:45:20;;;;;;;18.92;10.98;;;21.90;45.50;;;;;;6145134;28;83476;-63
2022/12/15 08:48:21;;;;;;;17.17;11.15;;;22.00;45.30;;;;;;6146430;28;84339;-63
2022/12/15 08:51:22;;;;;;;19.65;10.48;;;21.90;45.30;;;;;;6142609;28;83226;-62
2022/12/15 08:54:22;;;;;;;18.13;11.13;;;22.00;45.40;;;;;;6136306;28;82885;-63
2022/12/15 08:57:23;;;;;;;20.05;10.73;;;22.00;45.10;;;;;;6138500;28;91251;-60
2022/12/15 09:00:23;;;;;;;20.17;10.85;;;21.90;45.30;;;;;;6139281;28;83185;-64
2022/12/15 09:03:24;;;;;;;15.63;10.48;;;22.00;45.70;;;;;;6129127;28;83680;-63
2022/12/15 09:06:25;;;;;;;13.52;9.55;;;22.00;45.60;;;;;;6135627;28;83343;-65
2022/12/15 09:09:25;;;;;;;23.88;11.50;;;22.10;45.60;;;;;;6133835;28;84291;-61
2022/12/15 09:12:26;;;;;;;16.58;10.27;;;22.10;45.50;;;;;;6143449;28;83743;-62
2022/12/15 09:15:26;;;;;;;12.98;9.05;;;22.20;45.50;;;;;;6149936;28;83020;-63
2022/12/15 09:18:27;;;;;;;15.82;9.25;;;22.10;45.40;;;;;;6152005;28;83114;-61
2022/12/15 09:21:27;;;;;;;14.30;9.65;;;22.20;45.40;;;;;;6150728;28;80817;-64
2022/12/15 09:24:28;;;;;;;15.18;9.43;;;22.20;45.40;;;;;;6143509;28;81439;-62
2022/12/15 09:27:29;;;;;;;15.25;9.55;;;22.20;45.20;;;;;;6143699;28;81001;-65
2022/12/15 09:30:29;;;;;;;16.05;9.73;;;22.20;45.10;;;;;;6145972;28;83074;-61
2022/12/15 09:33:30;;;;;;;15.07;9.02;;;22.20;45.00;;;;;;6143577;28;80507;-66
2022/12/15 09:36:31;;;;;;;15.90;8.65;;;22.20;45.00;;;;;;6143255;28;81285;-64
2022/12/15 09:39:31;;;;;;;16.48;9.50;;;22.20;45.00;;;;;;6148446;28;81298;-64
2022/12/15 09:42:32;;;;;;;14.90;8.93;;;22.20;44.90;;;;;;6143708;28;83414;-63
2022/12/15 09:45:33;;;;;;;14.48;9.35;;;22.20;45.10;;;;;;6143150;28;82914;-63
2022/12/15 09:48:33;;;;;;;13.07;8.93;;;22.30;45.10;;;;;;6143950;28;80703;-63
2022/12/15 09:51:34;;;;;;;15.35;9.88;;;22.20;45.00;;;;;;6141755;28;80668;-62
2022/12/15 09:54:34;;;;;;;15.77;9.65;;;22.20;45.10;;;;;;6145623;28;82773;-61
2022/12/15 09:57:35;;;;;;;16.58;9.48;;;22.20;45.00;;;;;;6143225;28;81137;-61
2022/12/15 10:00:35;;;;;;;13.82;8.98;;;22.20;45.10;;;;;;6146323;28;80432;-62
2022/12/15 10:03:36;;;;;;;15.15;9.98;;;22.30;45.20;;;;;;6146652;28;80666;-63
2022/12/15 10:06:36;;;;;;;18.65;8.90;;;22.30;45.60;;;;;;6148047;28;83540;-63
2022/12/15 10:09:37;;;;;;;16.88;8.48;;;22.30;45.90;;;;;;6151357;28;83528;-63
2022/12/15 10:12:39;;;;;;;17.42;9.60;;;22.30;45.90;;;;;;6129392;28;81117;-66
2022/12/15 10:15:40;;;;;;;14.38;8.73;;;22.30;46.50;;;;;;6133511;28;83292;-69
2022/12/15 10:18:40;;;;;;;17.13;9.27;;;22.30;46.30;;;;;;6135498;28;83097;-69
2022/12/15 10:21:41;;;;;;;16.67;9.55;;;22.30;46.60;;;;;;6150687;28;80539;-72
2022/12/15 10:24:42;;;;;;;17.60;8.88;;;22.30;46.60;;;;;;6151095;28;80992;-63
2022/12/15 10:27:42;;;;;;;15.10;9.25;;;22.30;46.70;;;;;;6149026;28;81641;-69
2022/12/15 10:30:42;;;;;;;15.32;9.27;;;22.30;47.50;;;;;;6140919;28;80600;-65
2022/12/15 10:33:44;;;;;;;17.13;9.32;;;22.40;46.90;;;;;;6145469;28;83565;-69
2022/12/15 10:36:44;;;;;;;13.77;9.10;;;22.30;46.70;;;;;;6149979;28;82802;-66
2022/12/15 10:39:45;;;;;;;19.38;11.07;;;22.30;46.80;;;;;;6150989;28;81149;-66
2022/12/15 10:42:46;;;;;;;18.45;11.40;;;22.30;46.90;;;;;;6147179;28;84064;-67
2022/12/15 10:45:46;;;;;;;18.55;11.35;;;22.30;46.90;;;;;;6142291;28;83384;-64
2022/12/15 10:48:47;;;;;;;20.77;13.82;;;22.20;46.90;;;;;;6149138;28;83219;-67
2022/12/15 10:51:47;;;;;;;23.63;14.10;;;22.20;47.10;;;;;;6143900;28;83674;-61
2022/12/15 10:54:48;;;;;;;20.15;11.93;;;22.20;47.20;;;;;;6148452;28;83148;-64
2022/12/15 10:57:48;;;;;;;18.60;10.90;;;22.20;47.20;;;;;;6130211;28;83500;-62
2022/12/15 11:00:49;;;;;;;16.73;10.45;;;22.20;47.90;;;;;;6126293;28;88096;-63
2022/12/15 11:03:53;;;;;;;18.42;10.15;;;22.20;47.50;;;;;;6127853;28;83170;-63
2022/12/15 11:06:53;;;;;;;16.65;9.55;;;22.20;47.50;;;;;;6125262;28;83271;-63
2022/12/15 11:09:54;;;;;;;18.80;10.23;;;22.20;47.30;;;;;;6132511;28;83741;-63
2022/12/15 11:12:55;;;;;;;15.32;10.27;;;22.10;47.50;;;;;;6125864;28;83326;-61
2022/12/15 11:15:55;;;;;;;15.68;9.93;;;22.20;47.50;;;;;;6129559;28;83319;-64
2022/12/15 11:18:56;;;;;;;16.00;9.98;;;22.10;47.50;;;;;;6125927;28;82301;-66
2022/12/15 11:21:58;;;;;;;16.20;10.25;;;22.10;47.50;;;;;;6144931;28;83210;-64
2022/12/15 11:24:59;;;;;;;17.50;11.13;;;22.10;47.30;;;;;;6135551;28;83440;-63
2022/12/15 11:27:59;;;;;;;21.88;11.43;;;22.00;47.20;;;;;;6146484;28;83669;-66
2022/12/15 11:31:00;;;;;;;19.02;10.57;;;22.00;47.10;;;;;;6147834;28;85303;-66
2022/12/15 11:34:00;;;;;;;18.30;10.70;;;22.00;47.20;;;;;;6134090;28;84265;-64
2022/12/15 11:37:01;;;;;;;48.35;12.52;;;22.00;47.20;;;;;;6148566;28;83500;-66
2022/12/15 11:40:01;;;;;;;16.02;9.80;;;22.00;47.30;;;;;;6147024;28;83142;-66
2022/12/15 11:43:02;;;;;;;17.15;9.55;;;21.90;47.40;;;;;;6151005;28;83082;-66
2022/12/15 11:46:02;;;;;;;20.38;10.02;;;21.90;47.60;;;;;;6150955;28;80743;-61
2022/12/15 11:49:03;;;;;;;20.70;9.63;;;21.90;48.00;;;;;;6133450;28;86241;-60
2022/12/15 11:52:04;;;;;;;19.20;9.85;;;21.90;47.70;;;;;;6122408;28;85418;-61
2022/12/15 11:55:06;;;;;;;18.92;10.00;;;21.90;47.80;;;;;;6149026;28;80115;-61
2022/12/15 11:58:07;;;;;;;17.65;9.82;;;21.90;47.80;;;;;;6132923;28;83794;-61
2022/12/15 12:01:07;;;;;;;16.95;10.95;;;21.90;48.00;;;;;;6131012;28;82866;-62
2022/12/15 12:04:08;;;;;;;23.88;12.18;;;21.80;48.20;;;;;;6149194;28;82886;-70
2022/12/15 12:07:08;;;;;;;32.58;14.50;;;21.90;48.50;;;;;;6132022;28;83040;-72
2022/12/15 12:10:09;;;;;;;41.60;17.13;;;21.90;49.00;;;;;;6142412;28;83904;-72
2022/12/15 12:13:09;;;;;;;50.63;18.23;;;21.90;49.70;;;;;;6127936;28;83664;-74
2022/12/15 12:16:10;;;;;;;67.32;19.02;;;21.90;49.60;;;;;;6126592;28;83382;-71
2022/12/15 12:19:10;;;;;;;68.32;22.70;;;21.90;50.50;;;;;;6132756;28;83848;-74
2022/12/15 12:22:11;;;;;;;53.35;20.17;;;22.00;50.90;;;;;;6132488;28;83507;-66
2022/12/15 12:25:11;;;;;;;53.35;20.05;;;22.00;50.60;;;;;;6107620;28;86261;-66
2022/12/15 12:28:12;;;;;;;47.00;18.65;;;22.10;50.30;;;;;;6141124;28;84071;-66
2022/12/15 12:31:12;;;;;;;46.75;17.55;;;22.10;49.70;;;;;;6132500;28;83166;-63
2022/12/15 12:34:13;;;;;;;40.13;16.30;;;22.10;49.60;;;;;;6132598;28;86642;-67
2022/12/15 12:37:13;;;;;;;56.40;18.55;;;22.20;49.30;;;;;;6121486;28;83673;-67
2022/12/15 12:40:15;;;;;;;35.83;15.60;;;22.20;49.10;;;;;;6122729;28;83398;-74
2022/12/15 12:43:15;;;;;;;44.05;17.90;;;22.30;48.50;;;;;;6130948;28;84383;-71
2022/12/15 12:46:16;;;;;;;38.03;16.88;;;22.30;48.60;;;;;;6130149;28;83204;-74
2022/12/15 12:49:16;;;;;;;30.77;14.98;;;22.30;47.90;;;;;;6128332;28;83686;-74
2022/12/15 12:52:17;;;;;;;30.10;15.88;;;22.30;47.40;;;;;;6141276;28;84407;-71
2022/12/15 12:55:17;;;;;;;32.00;15.68;;;22.40;47.10;;;;;;6141438;28;83182;-75
2022/12/15 12:58:18;;;;;;;32.47;15.23;;;22.40;46.60;;;;;;6143470;28;83009;-74
2022/12/15 13:01:18;;;;;;;35.72;15.25;;;22.40;46.30;;;;;;6125400;28;83342;-72
2022/12/15 13:04:19;;;;;;;26.88;13.63;;;22.40;46.10;;;;;;6144527;28;83693;-70
2022/12/15 13:07:19;;;;;;;28.20;13.65;;;22.40;45.80;;;;;;6149345;28;83710;-72
2022/12/15 13:10:20;;;;;;;26.25;14.13;;;22.40;45.60;;;;;;6144106;28;83232;-70
2022/12/15 13:13:20;;;;;;;24.88;13.10;;;22.50;45.30;;;;;;6150293;28;83242;-73
2022/12/15 13:16:21;;;;;;;24.40;13.40;;;22.40;45.10;;;;;;6150169;28;82796;-67
2022/12/15 13:19:21;;;;;;;24.52;12.50;;;22.50;44.70;;;;;;6141978;28;83144;-71
2022/12/15 13:22:22;;;;;;;23.42;13.50;;;22.50;44.20;;;;;;6139526;28;88437;-66
2022/12/15 13:25:22;;;;;;;24.58;13.25;;;22.50;43.90;;;;;;6143087;28;86551;-72
2022/12/15 13:28:23;;;;;;;30.10;14.23;;;22.50;43.80;;;;;;6131002;28;83469;-70
2022/12/15 13:31:23;;;;;;;28.95;14.32;;;22.60;45.40;;;;;;6138475;28;84124;-71
2022/12/15 13:34:24;;;;;;;23.13;12.95;;;22.60;45.10;;;;;;6132365;28;83552;-70
2022/12/15 13:37:24;;;;;;;19.15;12.38;;;22.60;45.40;;;;;;6142109;28;84422;-63
2022/12/15 13:40:25;;;;;;;24.98;13.32;;;22.60;45.70;;;;;;6131875;28;83038;-62
2022/12/15 13:43:26;;;;;;;23.38;13.68;;;22.60;45.60;;;;;;6127832;28;85819;-64
2022/12/15 13:46:26;;;;;;;19.95;12.55;;;22.60;45.90;;;;;;6137418;28;83647;-62
2022/12/15 13:49:27;;;;;;;20.52;11.63;;;22.60;46.00;;;;;;6148409;28;82723;-65
2022/12/15 13:52:27;;;;;;;16.95;11.23;;;22.50;45.80;;;;;;6147873;28;83099;-63
2022/12/15 13:55:28;;;;;;;22.30;11.90;;;22.50;45.90;;;;;;6143578;28;88003;-63
2022/12/15 13:58:28;;;;;;;23.70;13.10;;;22.40;46.30;;;;;;6144684;28;90181;-67
2022/12/15 14:01:29;;;;;;;25.60;14.15;;;22.40;46.20;;;;;;6145931;28;83255;-67
2022/12/15 14:04:29;;;;;;;25.92;14.70;;;22.40;46.60;;;;;;6140958;28;85570;-70
2022/12/15 14:07:30;;;;;;;27.02;13.85;;;22.30;46.50;;;;;;6142570;28;83729;-67
2022/12/15 14:10:30;;;;;;;25.98;15.38;;;22.30;46.90;;;;;;6146804;28;83225;-70
2022/12/15 14:13:31;;;;;;;28.13;16.42;;;22.20;46.50;;;;;;6146635;28;83189;-68
2022/12/15 14:16:31;;;;;;;30.85;18.33;;;22.20;46.80;;;;;;6148114;28;86053;-63
2022/12/15 14:19:32;;;;;;;32.25;19.02;;;22.20;47.60;;;;;;6146029;28;83013;-64
2022/12/15 14:22:32;;;;;;;38.05;20.77;;;22.20;47.10;;;;;;6147629;28;83093;-67
2022/12/15 14:25:33;;;;;;;40.53;21.55;;;22.10;47.00;;;;;;6148386;28;82892;-70
2022/12/15 14:28:33;;;;;;;44.28;23.10;;;22.10;47.10;;;;;;6145542;28;85484;-67
2022/12/15 14:31:34;;;;;;;44.25;23.70;;;22.10;47.10;;;;;;6130019;28;84223;-66
2022/12/15 14:34:34;;;;;;;42.45;21.40;;;22.10;47.10;;;;;;6147628;28;83567;-64
2022/12/15 14:37:35;;;;;;;41.08;20.98;;;22.10;47.20;;;;;;6145303;28;84611;-62
2022/12/15 14:40:35;;;;;;;36.42;19.00;;;22.00;47.20;;;;;;6146973;28;84212;-67
2022/12/15 14:43:36;;;;;;;35.28;19.52;;;22.00;47.50;;;;;;6114665;28;83122;-66
2022/12/15 14:46:39;;;;;;;38.17;17.90;;;22.00;47.50;;;;;;6136146;28;83765;-63
2022/12/15 14:49:40;;;;;;;32.28;16.23;;;22.00;47.50;;;;;;6132577;28;85819;-68
2022/12/15 14:52:41;;;;;;;34.75;17.45;;;22.00;47.50;;;;;;6130730;28;83047;-72
2022/12/15 14:55:41;;;;;;;31.00;16.80;;;22.00;47.30;;;;;;6126606;28;83704;-73
2022/12/15 14:58:42;;;;;;;29.50;16.33;;;22.00;47.20;;;;;;6148608;28;85146;-73
2022/12/15 15:01:42;;;;;;;30.83;15.55;;;22.00;47.20;;;;;;6141832;28;85079;-70
2022/12/15 15:04:43;;;;;;;24.63;15.50;;;22.00;47.20;;;;;;6134046;28;84069;-73
2022/12/15 15:07:44;;;;;;;31.40;14.18;;;22.00;47.20;;;;;;6145888;28;83391;-67
2022/12/15 15:10:44;;;;;;;26.30;14.50;;;22.00;47.20;;;;;;6130726;28;83121;-67
2022/12/15 15:13:45;;;;;;;31.70;15.23;;;22.00;47.20;;;;;;6138829;28;89267;-67
2022/12/15 15:16:46;;;;;;;33.08;14.57;;;22.00;47.40;;;;;;6135372;28;82949;-67
2022/12/15 15:19:46;;;;;;;25.38;14.45;;;22.00;47.50;;;;;;6138163;28;83215;-68
2022/12/15 15:22:47;;;;;;;29.55;14.63;;;22.00;47.30;;;;;;6139450;28;85687;-68
2022/12/15 15:25:47;;;;;;;25.55;13.30;;;22.00;47.20;;;;;;6141935;28;83768;-63
2022/12/15 15:28:48;;;;;;;26.15;14.23;;;22.00;47.20;;;;;;6135575;28;87724;-62
2022/12/15 15:31:48;;;;;;;24.30;13.43;;;22.00;46.90;;;;;;6128874;28;83302;-63
2022/12/15 15:34:49;;;;;;;20.15;14.32;;;22.00;47.20;;;;;;6138653;28;83142;-63
2022/12/15 15:37:50;;;;;;;21.80;13.95;;;22.00;47.00;;;;;;6150222;28;83287;-63
2022/12/15 15:40:51;;;;;;;22.92;13.15;;;22.00;46.80;;;;;;6142413;28;83391;-61
2022/12/15 15:43:51;;;;;;;19.35;12.32;;;22.00;47.20;;;;;;6141679;28;83040;-63
2022/12/15 15:46:52;;;;;;;21.92;12.25;;;22.00;47.20;;;;;;6138698;28;84001;-65
2022/12/15 15:49:53;;;;;;;19.20;11.70;;;22.10;47.00;;;;;;6121766;28;83660;-66
2022/12/15 15:52:54;;;;;;;20.38;12.10;;;22.10;47.00;;;;;;6123965;28;83149;-63
2022/12/15 15:55:54;;;;;;;20.42;12.10;;;22.10;47.00;;;;;;6126371;28;83413;-63
2022/12/15 15:58:55;;;;;;;19.70;11.57;;;22.20;46.90;;;;;;6121955;28;83492;-66
2022/12/15 16:02:00;;;;;;;17.63;11.35;;;22.20;46.90;;;;;;6128496;28;82775;-66
2022/12/15 16:05:01;;;;;;;20.50;11.27;;;22.20;47.00;;;;;;6128017;28;83229;-66
2022/12/15 16:08:01;;;;;;;17.10;10.85;;;22.20;47.10;;;;;;6130701;28;83730;-67
2022/12/15 16:11:02;;;;;;;17.25;10.32;;;22.30;47.00;;;;;;6122278;28;83930;-65
2022/12/15 16:14:02;;;;;;;18.60;10.80;;;22.30;47.10;;;;;;6122974;28;83605;-66
2022/12/15 16:17:03;;;;;;;19.85;11.40;;;22.30;46.90;;;;;;6134973;28;87192;-68
2022/12/15 16:20:04;;;;;;;18.67;10.52;;;22.30;46.50;;;;;;6145355;28;85321;-64
2022/12/15 16:23:04;;;;;;;17.42;10.40;;;22.30;46.60;;;;;;6137819;28;84465;-62
2022/12/15 16:26:05;;;;;;;22.15;10.98;;;22.30;46.30;;;;;;6120589;28;86488;-64
2022/12/15 16:29:05;;;;;;;18.25;11.15;;;22.30;46.10;;;;;;6133395;28;84861;-65
2022/12/15 16:32:06;;;;;;;25.00;11.93;;;22.30;46.30;;;;;;6144881;28;86777;-63
2022/12/15 16:35:06;;;;;;;26.73;11.80;;;22.30;46.70;;;;;;6113175;28;87268;-61
2022/12/15 16:38:07;;;;;;;26.95;11.98;;;22.40;46.90;;;;;;6134183;28;86821;-64
2022/12/15 16:41:07;;;;;;;26.10;12.18;;;22.40;47.00;;;;;;6143151;28;83717;-61
2022/12/15 16:44:08;;;;;;;23.83;11.68;;;22.40;47.20;;;;;;6143540;28;83079;-60
2022/12/15 16:47:08;;;;;;;19.15;11.30;;;22.40;47.10;;;;;;6123178;28;84911;-60
2022/12/15 16:50:09;;;;;;;20.65;12.00;;;22.40;47.00;;;;;;6123821;28;82897;-62
2022/12/15 16:53:09;;;;;;;20.70;10.98;;;22.40;46.90;;;;;;6127928;28;84722;-64
2022/12/15 16:56:10;;;;;;;31.48;13.25;;;22.40;46.90;;;;;;6128245;28;85002;-62
2022/12/15 16:59:11;;;;;;;19.27;11.70;;;22.40;46.70;;;;;;6126726;28;87557;-62
2022/12/15 17:02:12;;;;;;;23.17;13.05;;;22.40;46.80;;;;;;6135181;28;83579;-60
2022/12/15 17:05:12;;;;;;;23.40;12.65;;;22.50;46.10;;;;;;6141160;28;83084;-60
2022/12/15 17:08:13;;;;;;;23.92;12.98;;;22.50;47.00;;;;;;6121625;28;83469;-58
2022/12/15 17:11:14;;;;;;;24.95;13.07;;;22.50;47.20;;;;;;6128493;28;85930;-62
2022/12/15 17:14:15;;;;;;;22.20;13.10;;;22.50;47.20;;;;;;6125518;28;83528;-65
2022/12/15 17:17:18;;;;;;;22.75;12.85;;;22.60;47.50;;;;;;6128269;28;83134;-68
2022/12/15 17:20:19;;;;;;;23.98;13.90;;;22.50;47.30;;;;;;6127444;28;84827;-66
2022/12/15 17:23:19;;;;;;;24.73;14.48;;;22.60;47.20;;;;;;6128187;28;84082;-69
2022/12/15 17:26:20;;;;;;;23.73;13.00;;;22.60;47.20;;;;;;6131546;28;83881;-70
2022/12/15 17:29:20;;;;;;;21.85;12.77;;;22.60;47.30;;;;;;6135477;28;86047;-70
2022/12/15 17:32:21;;;;;;;21.85;12.60;;;22.60;47.20;;;;;;6129756;28;83353;-67
2022/12/15 17:35:21;;;;;;;25.17;13.68;;;22.60;47.20;;;;;;6129495;28;83283;-63
2022/12/15 17:38:22;;;;;;;22.52;13.00;;;22.60;47.10;;;;;;6140273;28;84009;-63
2022/12/15 17:41:22;;;;;;;21.90;12.80;;;22.60;47.10;;;;;;6134718;28;84289;-64